createdAt,value
2023-04-16T00:01:24.959Z,5.80
2023-04-16T00:03:51.690Z,6.13
2023-04-16T00:06:18.616Z,7.27
2023-04-16T00:08:44.990Z,6.67
2023-04-16T00:11:11.725Z,6.67
2023-04-16T00:13:38.144Z,6.37
2023-04-16T00:16:05.117Z,7.00
2023-04-16T00:18:32.056Z,6.80
2023-04-16T00:20:59.796Z,5.90
2023-04-16T00:23:26.221Z,6.70
2023-04-16T00:25:53.795Z,5.90
2023-04-16T00:28:20.330Z,6.50
2023-04-16T00:30:47.021Z,6.73
2023-04-16T00:33:13.513Z,6.63
2023-04-16T00:35:39.976Z,7.47
2023-04-16T00:38:06.409Z,6.43
2023-04-16T00:40:32.801Z,6.17
2023-04-16T00:42:59.175Z,6.57
2023-04-16T00:45:25.696Z,7.97
2023-04-16T00:47:52.139Z,8.37
2023-04-16T00:50:18.703Z,8.53
2023-04-16T00:52:50.334Z,7.93
2023-04-16T00:55:18.831Z,7.97
2023-04-16T00:57:46.505Z,7.70
2023-04-16T01:00:16.169Z,7.47
2023-04-16T01:02:42.863Z,7.30
2023-04-16T01:05:09.505Z,7.37
2023-04-16T01:07:35.895Z,7.17
2023-04-16T01:10:02.995Z,7.60
2023-04-16T01:12:29.516Z,7.40
2023-04-16T01:14:56.249Z,7.13
2023-04-16T01:17:22.715Z,6.97
2023-04-16T01:19:49.113Z,7.30
2023-04-16T01:22:16.279Z,6.60
2023-04-16T01:24:42.737Z,6.97
2023-04-16T01:27:09.129Z,7.47
2023-04-16T01:29:35.502Z,7.30
2023-04-16T01:32:02.007Z,7.20
2023-04-16T01:34:28.544Z,7.53
2023-04-16T01:36:55.507Z,7.37
2023-04-16T01:39:22.312Z,6.10
2023-04-16T01:41:48.765Z,6.40
2023-04-16T01:44:15.493Z,6.07
2023-04-16T01:46:42.915Z,6.20
2023-04-16T01:49:09.496Z,6.23
2023-04-16T01:51:36.165Z,6.37
2023-04-16T01:54:02.707Z,7.03
2023-04-16T01:56:29.405Z,6.10
2023-04-16T01:58:56.184Z,5.53
2023-04-16T02:01:22.931Z,4.90
2023-04-16T02:03:51.247Z,5.87
2023-04-16T02:06:17.763Z,4.80
2023-04-16T02:08:44.244Z,5.60
2023-04-16T02:11:10.968Z,5.20
2023-04-16T02:13:37.714Z,4.73
2023-04-16T02:16:04.449Z,4.80
2023-04-16T02:18:30.891Z,4.63
2023-04-16T02:20:59.974Z,4.23
2023-04-16T02:23:26.599Z,4.73
2023-04-16T02:25:53.033Z,4.80
2023-04-16T02:28:19.761Z,4.60
2023-04-16T02:30:46.138Z,4.87
2023-04-16T02:33:13.482Z,4.43
2023-04-16T02:35:40.702Z,4.60
2023-04-16T02:38:07.924Z,4.43
2023-04-16T02:40:34.387Z,4.90
2023-04-16T02:43:01.116Z,4.10
2023-04-16T02:45:27.562Z,4.10
2023-04-16T02:47:54.312Z,4.10
2023-04-16T02:50:20.806Z,5.10
2023-04-16T02:52:48.829Z,4.00
2023-04-16T02:55:15.296Z,3.93
2023-04-16T02:57:42.517Z,3.80
2023-04-16T03:00:09.781Z,3.80
2023-04-16T03:02:36.674Z,3.90
2023-04-16T03:05:03.836Z,3.77
2023-04-16T03:07:30.406Z,3.77
2023-04-16T03:09:56.934Z,3.80
2023-04-16T03:12:23.365Z,3.97
2023-04-16T03:14:51.760Z,3.80
2023-04-16T03:17:18.193Z,3.80
2023-04-16T03:19:44.622Z,3.40
2023-04-16T03:22:11.083Z,3.20
2023-04-16T03:24:38.179Z,4.07
2023-04-16T03:27:04.575Z,3.43
2023-04-16T03:29:31.269Z,3.33
2023-04-16T03:31:57.691Z,3.20
2023-04-16T03:34:24.253Z,3.60
2023-04-16T03:36:50.631Z,3.17
2023-04-16T03:39:17.412Z,3.00
2023-04-16T03:41:43.783Z,3.20
2023-04-16T03:44:10.432Z,2.90
2023-04-16T03:46:36.893Z,2.90
2023-04-16T03:49:03.456Z,3.40
2023-04-16T03:51:29.812Z,3.47
2023-04-16T03:53:56.222Z,3.43
2023-04-16T03:56:22.706Z,3.20
2023-04-16T03:58:49.380Z,3.87
2023-04-16T04:01:15.737Z,3.53
2023-04-16T04:03:42.478Z,3.97
2023-04-16T04:06:09.497Z,3.47
2023-04-16T04:08:36.219Z,3.47
2023-04-16T04:11:02.593Z,3.50
2023-04-16T04:13:29.227Z,3.27
2023-04-16T04:15:55.691Z,3.03
2023-04-16T04:18:22.495Z,3.30
2023-04-16T04:20:48.887Z,3.33
2023-04-16T04:23:15.814Z,3.37
2023-04-16T04:25:42.184Z,3.47
2023-04-16T04:28:08.565Z,3.17
2023-04-16T04:30:36.264Z,3.23
2023-04-16T04:33:02.795Z,3.00
2023-04-16T04:35:29.335Z,2.57
2023-04-16T04:37:55.763Z,3.27
2023-04-16T04:40:22.340Z,2.90
2023-04-16T04:42:49.055Z,2.87
2023-04-16T04:45:16.089Z,2.70
2023-04-16T04:47:42.540Z,2.90
2023-04-16T04:50:09.483Z,2.80
2023-04-16T04:52:35.885Z,3.27
2023-04-16T04:55:02.375Z,2.80
2023-04-16T04:57:28.761Z,3.40
2023-04-16T04:59:55.193Z,3.27
2023-04-16T05:02:21.644Z,3.30
2023-04-16T05:04:48.157Z,3.43
2023-04-16T05:07:14.566Z,3.07
2023-04-16T05:09:41.056Z,3.40
2023-04-16T05:12:07.523Z,2.90
2023-04-16T05:14:34.064Z,3.87
2023-04-16T05:17:01.009Z,3.13
2023-04-16T05:19:27.413Z,3.40
2023-04-16T05:21:54.370Z,3.07
2023-04-16T05:24:21.154Z,3.30
2023-04-16T05:26:47.512Z,2.97
2023-04-16T05:29:13.867Z,3.37
2023-04-16T05:31:40.320Z,3.60
2023-04-16T05:34:06.728Z,3.73
2023-04-16T05:36:33.075Z,3.03
2023-04-16T05:38:59.466Z,3.23
2023-04-16T05:41:25.875Z,3.30
2023-04-16T05:43:52.244Z,3.00
2023-04-16T05:46:18.797Z,3.50
2023-04-16T05:48:45.185Z,3.40
2023-04-16T05:51:11.978Z,2.83
2023-04-16T05:53:38.342Z,3.47
2023-04-16T05:56:05.789Z,3.00
2023-04-16T05:58:32.216Z,3.80
2023-04-16T06:00:58.952Z,4.00
2023-04-16T06:03:25.435Z,4.03
2023-04-16T06:05:52.135Z,3.63
2023-04-16T06:08:18.766Z,3.43
2023-04-16T06:10:48.982Z,3.67
2023-04-16T06:13:16.151Z,3.60
2023-04-16T06:15:42.575Z,3.57
2023-04-16T06:18:09.076Z,3.67
2023-04-16T06:20:36.205Z,3.40
2023-04-16T06:23:02.645Z,3.17
2023-04-16T06:25:29.069Z,3.40
2023-04-16T06:27:55.652Z,4.10
2023-04-16T06:30:22.068Z,3.97
2023-04-16T06:32:49.403Z,3.80
2023-04-16T06:35:16.561Z,4.03
2023-04-16T06:37:42.935Z,3.30
2023-04-16T06:40:09.825Z,3.20
2023-04-16T06:42:36.526Z,3.10
2023-04-16T06:45:03.035Z,4.17
2023-04-16T06:47:29.835Z,3.50
2023-04-16T06:49:56.292Z,3.40
2023-04-16T06:52:22.986Z,2.90
2023-04-16T06:54:49.411Z,3.10
2023-04-16T06:57:17.080Z,3.17
2023-04-16T06:59:43.446Z,2.40
2023-04-16T07:02:13.252Z,2.17
2023-04-16T07:04:39.695Z,2.60
2023-04-16T07:07:06.267Z,3.00
2023-04-16T07:09:32.625Z,3.20
2023-04-16T07:11:59.025Z,3.60
2023-04-16T07:14:25.472Z,3.33
2023-04-16T07:16:52.168Z,3.80
2023-04-16T07:19:18.623Z,3.50
2023-04-16T07:21:45.121Z,3.03
2023-04-16T07:24:11.789Z,3.20
2023-04-16T07:26:38.240Z,3.30
2023-04-16T07:29:04.694Z,3.27
2023-04-16T07:31:31.487Z,3.00
2023-04-16T07:33:58.465Z,3.20
2023-04-16T07:36:25.169Z,3.23
2023-04-16T07:38:51.533Z,3.00
2023-04-16T07:41:18.003Z,2.40
2023-04-16T07:43:44.386Z,2.33
2023-04-16T07:46:11.003Z,2.07
2023-04-16T07:48:37.394Z,2.30
2023-04-16T07:51:03.793Z,2.60
2023-04-16T07:53:30.219Z,2.40
2023-04-16T07:55:56.576Z,2.47
2023-04-16T07:58:23.367Z,2.23
2023-04-16T08:00:50.962Z,2.47
2023-04-16T08:03:18.847Z,2.30
2023-04-16T08:05:45.608Z,2.00
2023-04-16T08:08:11.952Z,2.17
2023-04-16T08:10:39.299Z,2.23
2023-04-16T08:13:05.890Z,2.20
2023-04-16T08:15:32.398Z,1.90
2023-04-16T08:17:59.657Z,2.30
2023-04-16T08:20:26.295Z,2.90
2023-04-16T08:22:54.813Z,2.60
2023-04-16T08:25:22.761Z,2.40
2023-04-16T08:27:49.245Z,2.30
2023-04-16T08:30:16.644Z,2.40
2023-04-16T08:32:43.625Z,2.27
2023-04-16T08:35:10.068Z,2.20
2023-04-16T08:37:36.440Z,2.23
2023-04-16T08:40:03.422Z,2.10
2023-04-16T08:42:38.051Z,1.70
2023-04-16T08:45:09.148Z,2.33
2023-04-16T08:47:39.686Z,2.00
2023-04-16T08:50:06.819Z,2.23
2023-04-16T08:52:38.100Z,1.90
2023-04-16T08:55:11.935Z,2.23
2023-04-16T08:57:51.164Z,1.90
2023-04-16T09:00:18.927Z,2.00
2023-04-16T09:02:46.609Z,1.90
2023-04-16T09:05:18.946Z,2.13
2023-04-16T09:07:46.772Z,2.30
2023-04-16T09:10:15.099Z,1.93
2023-04-16T09:12:44.792Z,2.10
2023-04-16T09:15:12.577Z,1.80
2023-04-16T09:17:40.213Z,1.80
2023-04-16T09:20:08.908Z,1.60
2023-04-16T09:22:36.007Z,1.70
2023-04-16T09:25:02.469Z,1.63
2023-04-16T09:27:30.300Z,1.80
2023-04-16T09:29:57.219Z,1.80
2023-04-16T09:32:28.003Z,1.67
2023-04-16T09:34:57.504Z,1.97
2023-04-16T09:37:24.693Z,2.20
2023-04-16T09:39:59.180Z,1.73
2023-04-16T09:42:28.019Z,1.80
2023-04-16T09:44:58.709Z,2.10
2023-04-16T09:47:39.393Z,1.50
2023-04-16T09:50:06.953Z,1.83
2023-04-16T09:52:36.842Z,1.70
2023-04-16T09:55:03.391Z,1.33
2023-04-16T09:57:29.840Z,1.23
2023-04-16T10:00:04.568Z,1.50
2023-04-16T10:02:31.854Z,1.70
2023-04-16T10:05:01.405Z,1.47
2023-04-16T10:07:29.115Z,1.43
2023-04-16T10:09:56.322Z,1.93
2023-04-16T10:12:22.667Z,1.70
2023-04-16T10:14:50.442Z,1.63
2023-04-16T10:17:18.526Z,1.50
2023-04-16T10:19:45.974Z,1.80
2023-04-16T10:22:12.733Z,1.90
2023-04-16T10:24:41.246Z,1.70
2023-04-16T10:27:07.640Z,1.87
2023-04-16T10:29:35.149Z,1.80
2023-04-16T10:32:03.352Z,1.60
2023-04-16T10:34:31.308Z,2.00
2023-04-16T10:36:57.750Z,2.20
2023-04-16T10:39:27.081Z,2.07
2023-04-16T10:42:10.546Z,2.10
2023-04-16T10:44:37.361Z,2.10
2023-04-16T10:47:11.222Z,2.00
2023-04-16T10:49:37.696Z,1.93
2023-04-16T10:52:14.928Z,2.23
2023-04-16T10:54:41.779Z,2.00
2023-04-16T10:57:10.075Z,2.00
2023-04-16T10:59:39.132Z,1.87
2023-04-16T11:02:13.827Z,2.00
2023-04-16T11:04:43.417Z,1.83
2023-04-16T11:07:16.433Z,1.80
2023-04-16T11:10:05.070Z,2.00
2023-04-16T11:12:38.100Z,1.80
2023-04-16T11:15:16.177Z,2.10
2023-04-16T11:17:43.811Z,2.10
2023-04-16T11:20:19.623Z,2.10
2023-04-16T11:22:48.736Z,2.40
2023-04-16T11:25:25.261Z,2.40
2023-04-16T11:27:52.646Z,2.20
2023-04-16T11:30:27.726Z,1.90
2023-04-16T11:32:54.299Z,1.90
2023-04-16T11:35:20.957Z,2.10
2023-04-16T11:37:50.628Z,1.80
2023-04-16T11:40:17.031Z,1.80
2023-04-16T11:42:44.257Z,1.70
2023-04-16T11:45:12.106Z,2.00
2023-04-16T11:47:46.663Z,2.17
2023-04-16T11:50:23.081Z,2.20
2023-04-16T11:52:51.886Z,2.33
2023-04-16T11:55:18.881Z,2.30
2023-04-16T11:57:46.041Z,2.30
2023-04-16T12:00:14.159Z,2.50
2023-04-16T12:02:55.820Z,2.50
2023-04-16T12:05:48.736Z,2.67
2023-04-16T12:08:29.251Z,2.10
2023-04-16T12:10:56.279Z,2.40
2023-04-16T12:13:23.308Z,2.50
2023-04-16T12:15:51.285Z,2.50
2023-04-16T12:18:20.177Z,2.10
2023-04-16T12:20:47.360Z,2.30
2023-04-16T12:23:28.694Z,2.30
2023-04-16T12:25:56.374Z,2.40
2023-04-16T12:28:33.741Z,2.30
2023-04-16T12:31:01.491Z,2.50
2023-04-16T12:33:28.271Z,2.17
2023-04-16T12:35:54.893Z,2.33
2023-04-16T12:38:23.685Z,1.97
2023-04-16T12:40:51.687Z,2.13
2023-04-16T12:43:18.336Z,2.00
2023-04-16T12:45:44.786Z,2.00
2023-04-16T12:48:11.506Z,1.80
2023-04-16T12:50:39.660Z,2.20
2023-04-16T12:53:06.563Z,2.23
2023-04-16T12:55:32.998Z,2.57
2023-04-16T12:57:59.464Z,2.43
2023-04-16T13:00:26.239Z,2.60
2023-04-16T13:02:52.784Z,2.67
2023-04-16T13:05:19.632Z,2.60
2023-04-16T13:07:46.182Z,10.00
2023-04-16T13:10:13.110Z,11.87
2023-04-16T13:12:39.644Z,7.87
2023-04-16T13:15:06.554Z,4.10
2023-04-16T13:17:32.948Z,2.40
2023-04-16T13:19:59.602Z,2.40
2023-04-16T13:22:26.107Z,2.70
2023-04-16T13:24:52.520Z,2.10
2023-04-16T13:27:18.928Z,2.07
2023-04-16T13:29:46.130Z,2.40
2023-04-16T13:32:13.914Z,2.00
2023-04-16T13:34:40.692Z,1.73
2023-04-16T13:37:07.144Z,2.00
2023-04-16T13:39:33.790Z,1.70
2023-04-16T13:42:00.320Z,1.90
2023-04-16T13:44:26.739Z,1.70
2023-04-16T13:46:53.229Z,1.70
2023-04-16T13:49:19.689Z,2.10
2023-04-16T13:51:46.215Z,1.57
2023-04-16T13:54:13.163Z,1.83
2023-04-16T13:56:39.866Z,1.67
2023-04-16T13:59:06.364Z,2.00
2023-04-16T14:01:32.985Z,2.23
2023-04-16T14:04:05.937Z,2.43
2023-04-16T14:06:33.846Z,2.63
2023-04-16T14:09:00.395Z,2.90
2023-04-16T14:11:26.846Z,2.40
2023-04-16T14:13:53.639Z,2.90
2023-04-16T14:16:20.317Z,2.93
2023-04-16T14:18:47.318Z,1.97
2023-04-16T14:21:13.772Z,1.60
2023-04-16T14:23:40.348Z,1.03
2023-04-16T14:26:06.764Z,1.07
2023-04-16T14:28:33.309Z,1.80
2023-04-16T14:30:59.674Z,1.20
2023-04-16T14:33:26.866Z,0.90
2023-04-16T14:35:53.283Z,0.90
2023-04-16T14:38:19.743Z,0.80
2023-04-16T14:40:46.138Z,0.90
2023-04-16T14:43:12.794Z,1.00
2023-04-16T14:45:39.347Z,1.50
2023-04-16T14:48:06.541Z,2.17
2023-04-16T14:50:39.082Z,2.53
2023-04-16T14:53:05.952Z,2.40
2023-04-16T14:55:32.654Z,2.40
2023-04-16T14:57:59.721Z,3.07
2023-04-16T15:00:26.396Z,2.50
2023-04-16T15:02:54.217Z,2.37
2023-04-16T15:05:20.816Z,2.10
2023-04-16T15:07:47.491Z,2.00
2023-04-16T15:10:13.869Z,2.00
2023-04-16T15:12:40.451Z,1.60
2023-04-16T15:15:08.372Z,1.50
2023-04-16T15:17:34.958Z,1.50
2023-04-16T15:20:01.583Z,1.40
2023-04-16T15:22:28.556Z,1.60
2023-04-16T15:24:54.933Z,1.50
2023-04-16T15:27:21.317Z,1.50
2023-04-16T15:29:49.331Z,1.40
2023-04-16T15:32:15.760Z,1.40
2023-04-16T15:34:42.184Z,1.40
2023-04-16T15:37:09.611Z,1.30
2023-04-16T15:39:36.028Z,1.00
2023-04-16T15:42:07.086Z,1.20
2023-04-16T15:44:34.360Z,1.20
2023-04-16T15:47:01.076Z,1.03
2023-04-16T15:49:27.495Z,0.93
2023-04-16T15:51:54.529Z,0.80
2023-04-16T15:54:21.475Z,0.90
2023-04-16T15:56:47.948Z,0.90
2023-04-16T15:59:14.335Z,0.90
2023-04-16T16:01:40.878Z,0.90
2023-04-16T16:04:08.083Z,0.80
2023-04-16T16:06:35.033Z,0.80
2023-04-16T16:09:01.774Z,0.90
2023-04-16T16:11:28.250Z,0.80
2023-04-16T16:13:55.358Z,0.80
2023-04-16T16:16:21.885Z,0.90
2023-04-16T16:18:48.696Z,1.00
2023-04-16T16:21:15.077Z,0.90
2023-04-16T16:23:42.384Z,0.90
2023-04-16T16:26:09.227Z,1.00
2023-04-16T16:28:37.817Z,0.93
2023-04-16T16:31:06.022Z,1.03
2023-04-16T16:33:33.131Z,1.10
2023-04-16T16:35:59.539Z,1.00
2023-04-16T16:38:26.137Z,1.00
2023-04-16T16:40:52.586Z,1.10
2023-04-16T16:43:19.046Z,1.00
2023-04-16T16:45:46.463Z,0.90
2023-04-16T16:48:12.891Z,0.90
2023-04-16T16:50:39.852Z,1.10
2023-04-16T16:53:06.304Z,1.40
2023-04-16T16:55:32.757Z,1.30
2023-04-16T16:57:59.191Z,1.20
2023-04-16T17:00:25.939Z,1.30
2023-04-16T17:02:52.758Z,1.30
2023-04-16T17:05:19.904Z,1.37
2023-04-16T17:07:46.683Z,1.43
2023-04-16T17:10:19.777Z,1.20
2023-04-16T17:12:48.009Z,1.20
2023-04-16T17:15:15.000Z,1.37
2023-04-16T17:17:41.695Z,1.50
2023-04-16T17:20:12.377Z,1.60
2023-04-16T17:22:39.282Z,1.40
2023-04-16T17:25:07.691Z,1.30
2023-04-16T17:27:34.395Z,1.27
2023-04-16T17:30:02.402Z,1.30
2023-04-16T17:32:29.845Z,1.20
2023-04-16T17:34:56.584Z,1.20
2023-04-16T17:37:23.529Z,1.30
2023-04-16T17:39:50.405Z,1.40
2023-04-16T17:42:17.164Z,1.40
2023-04-16T17:44:43.986Z,1.40
2023-04-16T17:47:10.726Z,1.30
2023-04-16T17:49:37.527Z,1.50
2023-04-16T17:52:03.921Z,1.70
2023-04-16T17:54:31.391Z,1.80
2023-04-16T17:56:57.752Z,2.60
2023-04-16T17:59:24.205Z,3.47
2023-04-16T18:01:50.787Z,3.10
2023-04-16T18:04:17.903Z,2.40
2023-04-16T18:06:44.724Z,2.10
2023-04-16T18:09:12.019Z,2.17
2023-04-16T18:11:38.761Z,2.03
2023-04-16T18:14:05.250Z,2.30
2023-04-16T18:16:32.223Z,3.23
2023-04-16T18:18:59.044Z,3.80
2023-04-16T18:21:25.913Z,4.50
2023-04-16T18:23:52.312Z,3.80
2023-04-16T18:26:22.497Z,2.60
2023-04-16T18:28:49.333Z,2.30
2023-04-16T18:31:15.956Z,2.23
2023-04-16T18:33:54.260Z,2.20
2023-04-16T18:36:23.900Z,2.10
2023-04-16T18:39:01.048Z,2.20
2023-04-16T18:41:29.783Z,2.30
2023-04-16T18:43:56.340Z,2.00
2023-04-16T18:46:22.981Z,1.97
2023-04-16T18:48:49.477Z,1.90
2023-04-16T18:51:16.717Z,3.10
2023-04-16T18:53:44.365Z,2.70
2023-04-16T18:56:11.638Z,3.00
2023-04-16T18:58:38.149Z,2.90
2023-04-16T19:01:05.205Z,2.50
2023-04-16T19:03:32.111Z,2.50
2023-04-16T19:05:58.811Z,2.40
2023-04-16T19:08:25.295Z,2.77
2023-04-16T19:10:51.830Z,2.50
2023-04-16T19:13:18.436Z,2.33
2023-04-16T19:15:44.860Z,2.50
2023-04-16T19:18:11.255Z,2.30
2023-04-16T19:20:37.957Z,2.40
2023-04-16T19:23:05.645Z,2.40
2023-04-16T19:25:32.633Z,2.10
2023-04-16T19:27:59.398Z,2.73
2023-04-16T19:30:26.306Z,2.97
2023-04-16T19:32:55.136Z,2.73
2023-04-16T19:35:22.122Z,2.63
2023-04-16T19:37:48.586Z,2.80
2023-04-16T19:40:15.006Z,2.57
2023-04-16T19:42:41.400Z,2.40
2023-04-16T19:45:08.075Z,1.90
2023-04-16T19:47:34.750Z,2.27
2023-04-16T19:50:01.136Z,2.00
2023-04-16T19:52:27.736Z,2.23
2023-04-16T19:54:54.279Z,2.70
2023-04-16T19:57:20.672Z,3.37
2023-04-16T19:59:47.046Z,3.60
2023-04-16T20:02:13.732Z,4.30
2023-04-16T20:04:40.264Z,3.80
2023-04-16T20:07:06.635Z,4.10
2023-04-16T20:09:33.004Z,4.20
2023-04-16T20:11:59.591Z,4.10
2023-04-16T20:14:25.935Z,4.10
2023-04-16T20:16:53.327Z,3.30
2023-04-16T20:19:19.751Z,3.30
2023-04-16T20:21:46.175Z,3.10
2023-04-16T20:24:12.699Z,3.00
2023-04-16T20:26:39.089Z,3.63
2023-04-16T20:29:05.659Z,3.90
2023-04-16T20:31:32.390Z,3.70
2023-04-16T20:33:58.845Z,3.83
2023-04-16T20:36:26.247Z,3.27
2023-04-16T20:38:53.993Z,3.40
2023-04-16T20:41:21.046Z,4.07
2023-04-16T20:43:50.064Z,3.77
2023-04-16T20:46:17.450Z,3.33
2023-04-16T20:48:44.456Z,3.60
2023-04-16T20:51:10.853Z,3.60
2023-04-16T20:53:37.695Z,3.10
2023-04-16T20:56:04.384Z,3.40
2023-04-16T20:58:30.875Z,3.03
2023-04-16T21:00:57.858Z,3.07
2023-04-16T21:03:24.907Z,2.90
2023-04-16T21:05:55.707Z,2.93
2023-04-16T21:08:23.600Z,3.00
2023-04-16T21:10:51.839Z,2.83
2023-04-16T21:13:18.635Z,2.87
2023-04-16T21:15:45.621Z,3.17
2023-04-16T21:18:12.695Z,3.13
2023-04-16T21:20:39.993Z,3.13
2023-04-16T21:23:06.605Z,2.70
2023-04-16T21:25:33.531Z,2.90
2023-04-16T21:27:59.930Z,3.67
2023-04-16T21:30:26.408Z,3.20
2023-04-16T21:32:53.029Z,3.63
2023-04-16T21:35:19.501Z,3.00
2023-04-16T21:37:46.203Z,3.20
2023-04-16T21:40:12.660Z,3.23
2023-04-16T21:42:40.269Z,3.70
2023-04-16T21:45:10.694Z,3.60
2023-04-16T21:47:37.715Z,3.20
2023-04-16T21:50:04.647Z,3.03
2023-04-16T21:52:32.969Z,3.20
2023-04-16T21:55:00.199Z,3.43
2023-04-16T21:57:26.863Z,3.37
2023-04-16T21:59:53.304Z,3.00
2023-04-16T22:02:19.788Z,3.40
2023-04-16T22:04:46.282Z,3.37
2023-04-16T22:07:12.912Z,3.80
2023-04-16T22:09:40.341Z,3.40
2023-04-16T22:12:07.043Z,3.50
2023-04-16T22:14:38.328Z,3.23
2023-04-16T22:17:05.669Z,2.70
2023-04-16T22:19:32.134Z,3.40
2023-04-16T22:21:58.500Z,3.23
2023-04-16T22:24:24.886Z,3.40
2023-04-16T22:26:51.287Z,3.20
2023-04-16T22:29:17.664Z,3.67
2023-04-16T22:31:44.448Z,3.43
2023-04-16T22:34:10.842Z,3.30
2023-04-16T22:36:37.241Z,3.00
2023-04-16T22:39:08.306Z,2.93
2023-04-16T22:41:36.118Z,2.83
2023-04-16T22:44:02.727Z,3.00
2023-04-16T22:46:29.289Z,2.70
2023-04-16T22:48:55.667Z,2.80
2023-04-16T22:51:24.280Z,2.80
2023-04-16T22:53:51.833Z,3.03
2023-04-16T22:56:21.711Z,3.40
2023-04-16T22:58:51.278Z,2.70
2023-04-16T23:01:17.736Z,3.00
2023-04-16T23:03:44.260Z,3.50
2023-04-16T23:06:10.761Z,3.00
2023-04-16T23:08:37.442Z,3.37
2023-04-16T23:11:03.852Z,2.90
2023-04-16T23:13:30.244Z,2.90
2023-04-16T23:15:56.639Z,3.20
2023-04-16T23:18:23.393Z,3.20
2023-04-16T23:20:53.594Z,2.97
2023-04-16T23:23:20.038Z,3.60
2023-04-16T23:25:46.403Z,3.53
2023-04-16T23:28:12.810Z,3.30
2023-04-16T23:30:39.231Z,3.30
2023-04-16T23:33:05.642Z,3.50
2023-04-16T23:35:32.129Z,3.30
2023-04-16T23:37:58.597Z,3.23
2023-04-16T23:40:24.963Z,3.50
2023-04-16T23:42:51.605Z,3.17
2023-04-16T23:45:18.092Z,3.80
2023-04-16T23:47:44.810Z,3.63
2023-04-16T23:50:11.461Z,3.40
2023-04-16T23:52:37.849Z,2.90
2023-04-16T23:55:04.714Z,3.10
2023-04-16T23:57:31.452Z,3.27
2023-04-16T23:59:57.837Z,3.27
